Terminal Aerodrome Forecast
Issued by NWS Wilmington, OH

Home | Current Version | Previous Version | Text Only | Print | Product List | Glossary On
Versions: 1 2 3 4 5 6 7 8 9 10 11 12 13 14 15 16 17 18 19 20 21 22 23
000
FTUS41 KILN 230000 AAA
TAFDAY
TAF AMD
KDAY 230049Z 2301/2324 01006KT P6SM OVC020
     FM230500 03004KT P6SM SCT025
     FM230600 04004KT P6SM SKC
     FM231500 30006KT P6SM SCT250=

USA.gov is the U.S. government's official web portal to all federal, state and local government web resources and services.